Time;durP1;ratioP1;P1;durP2;ratioP2;P2;SDS_P1;SDS_P2;PMS_P1;PMS_P2;Temp;Humidity;BMP_temperature;BMP_pressure;BME280_temperature;BME280_humidity;BME280_pressure;Samples;Min_cycle;Max_cycle;Signal;HPM_P1;HPM_P2
2021/12/28 00:01:06;;;;;;;57.17;22.38;;;;;;;;;;5060136;28;20041;-67
2021/12/28 00:03:32;;;;;;;44.63;22.15;;;;;;;;;;5059374;28;20049;-67
2021/12/28 00:06:00;;;;;;;43.15;20.52;;;;;;;;;;5060096;28;20045;-68
2021/12/28 00:08:26;;;;;;;44.28;21.25;;;;;;;;;;5058947;28;20403;-67
2021/12/28 00:10:52;;;;;;;35.88;20.10;;;;;;;;;;5060237;28;20047;-67
2021/12/28 00:13:18;;;;;;;34.42;20.33;;;;;;;;;;5061474;28;20120;-67
2021/12/28 00:18:13;;;;;;;;;;;;;;;;;;5060030;28;20129;-67
2021/12/28 00:20:41;;;;;;;42.45;22.27;;;;;;;;;;5059584;28;19968;-67
2021/12/28 00:23:09;;;;;;;43.75;22.40;;;;;;;;;;5060443;28;20049;-67
2021/12/28 00:25:35;;;;;;;43.63;21.02;;;;;;;;;;5058378;28;20446;-67
2021/12/28 00:28:02;;;;;;;39.92;21.67;;;;;;;;;;5057597;28;20078;-67
2021/12/28 00:30:29;;;;;;;44.42;23.40;;;;;;;;;;5034580;28;20109;-67
2021/12/28 00:32:56;;;;;;;50.55;24.30;;;;;;;;;;5058177;28;20049;-66
2021/12/28 00:35:23;;;;;;;44.78;23.67;;;;;;;;;;5059658;28;20061;-67
2021/12/28 00:37:50;;;;;;;46.50;23.70;;;;;;;;;;5057756;28;20047;-67
2021/12/28 00:40:16;;;;;;;57.33;25.92;;;;;;;;;;5057648;28;20041;-67
2021/12/28 00:42:42;;;;;;;47.83;25.20;;;;;;;;;;5058456;28;20049;-67
2021/12/28 00:45:09;;;;;;;47.45;25.05;;;;;;;;;;5057468;28;20051;-67
2021/12/28 00:47:35;;;;;;;51.92;25.80;;;;;;;;;;5056044;28;20098;-67
2021/12/28 00:50:01;;;;;;;50.08;26.02;;;;;;;;;;5056383;28;20042;-67
2021/12/28 00:52:27;;;;;;;63.78;27.50;;;;;;;;;;5057248;28;20045;-67
2021/12/28 00:54:53;;;;;;;54.65;26.67;;;;;;;;;;5030802;28;20598;-67
2021/12/28 00:57:19;;;;;;;58.00;27.17;;;;;;;;;;5053850;28;20076;-68
2021/12/28 00:59:45;;;;;;;56.78;25.45;;;;;;;;;;5055310;28;20495;-67
2021/12/28 01:02:11;;;;;;;56.35;27.02;;;;;;;;;;5057747;28;20045;-67
2021/12/28 01:04:37;;;;;;;54.90;26.15;;;;;;;;;;5057016;28;20051;-67
2021/12/28 01:07:03;;;;;;;57.50;26.90;;;;;;;;;;5055640;28;20033;-67
2021/12/28 01:09:31;;;;;;;61.67;28.52;;;;;;;;;;5057407;28;20037;-67
2021/12/28 01:11:58;;;;;;;59.42;28.27;;;;;;;;;;5056698;28;20045;-67
2021/12/28 01:14:24;;;;;;;64.32;31.65;;;;;;;;;;5055598;28;20078;-67
2021/12/28 01:16:50;;;;;;;59.28;28.92;;;;;;;;;;5055920;28;20124;-67
2021/12/28 01:19:16;;;;;;;56.75;28.30;;;;;;;;;;5055184;28;20136;-67
2021/12/28 01:21:42;;;;;;;60.20;27.52;;;;;;;;;;5055196;28;20049;-67
2021/12/28 01:24:08;;;;;;;61.08;28.45;;;;;;;;;;5056547;28;20186;-66
2021/12/28 01:26:34;;;;;;;68.95;30.52;;;;;;;;;;5054442;28;20049;-67
2021/12/28 01:29:00;;;;;;;70.35;31.35;;;;;;;;;;5055606;28;20162;-67
2021/12/28 01:31:26;;;;;;;60.22;28.52;;;;;;;;;;5037866;28;20085;-67
2021/12/28 01:33:52;;;;;;;84.45;31.58;;;;;;;;;;5054498;28;20083;-67
2021/12/28 01:36:18;;;;;;;78.20;32.70;;;;;;;;;;5054886;28;20044;-66
2021/12/28 01:38:44;;;;;;;78.63;31.70;;;;;;;;;;5051408;28;20099;-67
2021/12/28 01:41:10;;;;;;;74.47;30.42;;;;;;;;;;5053645;28;20072;-66
2021/12/28 01:43:40;;;;;;;71.95;31.60;;;;;;;;;;5037473;28;20048;-67
2021/12/28 01:46:07;;;;;;;73.30;31.67;;;;;;;;;;5054376;28;20053;-66
2021/12/28 01:48:35;;;;;;;76.38;31.15;;;;;;;;;;5037462;28;20056;-66
2021/12/28 01:51:05;;;;;;;77.72;31.75;;;;;;;;;;5052567;28;20049;-66
2021/12/28 01:53:31;;;;;;;84.82;33.15;;;;;;;;;;5054314;28;20037;-66
2021/12/28 01:55:59;;;;;;;91.47;31.88;;;;;;;;;;5052533;28;20041;-67
2021/12/28 01:58:26;;;;;;;82.40;31.20;;;;;;;;;;5022540;28;20056;-67
2021/12/28 02:00:53;;;;;;;132.43;36.83;;;;;;;;;;5029203;28;20041;-67
2021/12/28 02:03:20;;;;;;;96.03;34.25;;;;;;;;;;5046318;28;20534;-67
2021/12/28 02:05:46;;;;;;;95.32;33.95;;;;;;;;;;5052367;28;20048;-67
2021/12/28 02:08:13;;;;;;;95.18;32.72;;;;;;;;;;5035984;28;20084;-67
2021/12/28 02:10:40;;;;;;;81.57;32.90;;;;;;;;;;5033429;28;20041;-67
2021/12/28 02:13:08;;;;;;;80.53;31.25;;;;;;;;;;5036427;28;20106;-67
2021/12/28 02:15:34;;;;;;;89.47;32.55;;;;;;;;;;5054393;28;20439;-67
2021/12/28 02:18:01;;;;;;;93.80;34.65;;;;;;;;;;5053566;28;20112;-67
2021/12/28 02:20:27;;;;;;;81.35;32.53;;;;;;;;;;5052329;28;20044;-67
2021/12/28 02:22:53;;;;;;;93.07;35.47;;;;;;;;;;5052550;28;20033;-67
2021/12/28 02:25:19;;;;;;;102.55;36.75;;;;;;;;;;5054032;28;20064;-67
2021/12/28 02:27:46;;;;;;;88.80;33.42;;;;;;;;;;5052043;28;20081;-67
2021/12/28 02:30:14;;;;;;;81.60;31.75;;;;;;;;;;5052587;28;20402;-66
2021/12/28 02:32:41;;;;;;;86.00;32.70;;;;;;;;;;5052795;28;20175;-66
2021/12/28 02:35:09;;;;;;;84.57;33.22;;;;;;;;;;5052336;28;20380;-66
2021/12/28 02:37:35;;;;;;;89.28;32.75;;;;;;;;;;5052486;28;20430;-66
2021/12/28 02:40:01;;;;;;;83.97;31.77;;;;;;;;;;5053161;28;20111;-67
2021/12/28 02:42:27;;;;;;;76.80;31.90;;;;;;;;;;5053606;28;20045;-67
2021/12/28 02:44:57;;;;;;;76.60;30.95;;;;;;;;;;5053256;28;20450;-66
2021/12/28 02:47:23;;;;;;;85.35;31.60;;;;;;;;;;5054370;28;20044;-67
2021/12/28 02:49:49;;;;;;;83.20;33.08;;;;;;;;;;5053678;28;20087;-67
2021/12/28 02:52:15;;;;;;;92.55;33.10;;;;;;;;;;5035945;28;20463;-67
2021/12/28 02:54:41;;;;;;;84.55;32.55;;;;;;;;;;5053676;28;20088;-67
2021/12/28 02:57:07;;;;;;;79.30;33.05;;;;;;;;;;5052968;28;20056;-67
2021/12/28 02:59:33;;;;;;;87.78;33.67;;;;;;;;;;5053015;28;20470;-67
2021/12/28 03:01:59;;;;;;;76.82;31.60;;;;;;;;;;5054599;28;20064;-67
2021/12/28 03:04:27;;;;;;;97.85;34.35;;;;;;;;;;5053635;28;20060;-66
2021/12/28 03:06:53;;;;;;;86.25;32.28;;;;;;;;;;5035241;28;20085;-67
2021/12/28 03:09:21;;;;;;;80.22;31.35;;;;;;;;;;5053151;28;20052;-67
2021/12/28 03:11:47;;;;;;;88.97;33.85;;;;;;;;;;5053088;28;20415;-67
2021/12/28 03:14:13;;;;;;;90.10;33.63;;;;;;;;;;5056744;28;20052;-66
2021/12/28 03:16:39;;;;;;;108.93;35.45;;;;;;;;;;5058008;28;20462;-67
2021/12/28 03:19:05;;;;;;;146.82;39.10;;;;;;;;;;5057270;28;20041;-66
2021/12/28 03:21:35;;;;;;;139.13;40.38;;;;;;;;;;5058051;28;20076;-67
2021/12/28 03:24:01;;;;;;;119.53;36.28;;;;;;;;;;5057478;28;20044;-67
2021/12/28 03:26:27;;;;;;;145.93;38.28;;;;;;;;;;5056162;28;20045;-67
2021/12/28 03:28:53;;;;;;;178.68;40.10;;;;;;;;;;5055645;28;20049;-67
2021/12/28 03:31:21;;;;;;;168.10;41.13;;;;;;;;;;5057743;28;20496;-67
2021/12/28 03:33:49;;;;;;;228.00;42.53;;;;;;;;;;5056922;28;20055;-67
2021/12/28 03:36:16;;;;;;;160.73;36.90;;;;;;;;;;5057203;28;20049;-67
2021/12/28 03:38:43;;;;;;;218.27;39.60;;;;;;;;;;5055697;28;20052;-67
2021/12/28 03:41:09;;;;;;;213.68;39.53;;;;;;;;;;5057494;28;20049;-67
2021/12/28 03:43:39;;;;;;;149.38;33.90;;;;;;;;;;5058660;28;20048;-67
2021/12/28 03:46:07;;;;;;;240.43;38.88;;;;;;;;;;5039815;28;20071;-67
2021/12/28 03:48:34;;;;;;;264.50;41.30;;;;;;;;;;5040475;28;20483;-67
2021/12/28 03:51:00;;;;;;;174.52;34.83;;;;;;;;;;5056831;28;20132;-67
2021/12/28 03:53:26;;;;;;;184.55;35.65;;;;;;;;;;5055810;28;20049;-67
2021/12/28 03:55:52;;;;;;;127.75;32.10;;;;;;;;;;5056179;28;20036;-67
2021/12/28 03:58:18;;;;;;;222.75;36.60;;;;;;;;;;5056683;28;20449;-67
2021/12/28 04:00:46;;;;;;;140.50;33.60;;;;;;;;;;5055977;28;20049;-67
2021/12/28 04:03:12;;;;;;;145.27;31.83;;;;;;;;;;5055910;28;20044;-67
2021/12/28 04:05:39;;;;;;;104.25;30.63;;;;;;;;;;5055975;28;20090;-67
2021/12/28 04:08:06;;;;;;;97.55;26.17;;;;;;;;;;5056632;28;20088;-66
2021/12/28 04:10:48;;;;;;;102.90;28.15;;;;;;;;;;5038450;28;20087;-67
2021/12/28 04:13:14;;;;;;;150.05;31.05;;;;;;;;;;5055845;28;20120;-67
2021/12/28 04:15:40;;;;;;;96.10;27.08;;;;;;;;;;5054401;28;20483;-67
2021/12/28 04:18:06;;;;;;;158.55;30.42;;;;;;;;;;5056011;28;20045;-66
2021/12/28 04:20:32;;;;;;;110.45;29.48;;;;;;;;;;5054281;28;20052;-66
2021/12/28 04:22:58;;;;;;;96.82;26.90;;;;;;;;;;5055264;28;20124;-67
2021/12/28 04:25:27;;;;;;;;;;;;;;;;;;5053791;28;20486;-67
2021/12/28 04:27:53;;;;;;;97.35;26.95;;;;;;;;;;5056272;28;19928;-67
2021/12/28 04:30:19;;;;;;;100.35;27.30;;;;;;;;;;5054304;28;20057;-67
2021/12/28 04:32:45;;;;;;;93.97;27.35;;;;;;;;;;5055222;28;20132;-67
2021/12/28 04:35:12;;;;;;;89.97;27.08;;;;;;;;;;5054665;28;20063;-68
2021/12/28 04:37:38;;;;;;;98.00;27.30;;;;;;;;;;5053823;28;20071;-67
2021/12/28 04:40:07;;;;;;;76.97;25.75;;;;;;;;;;5054349;28;20048;-67
2021/12/28 04:42:33;;;;;;;206.82;41.88;;;;;;;;;;5054053;28;20075;-67
2021/12/28 04:44:59;;;;;;;126.55;29.42;;;;;;;;;;5054341;28;20385;-67
2021/12/28 04:47:26;;;;;;;110.05;29.50;;;;;;;;;;5054705;28;20056;-67
2021/12/28 04:49:52;;;;;;;92.88;27.48;;;;;;;;;;5054046;28;20129;-67
2021/12/28 04:52:18;;;;;;;92.32;27.45;;;;;;;;;;5054572;28;20475;-67
2021/12/28 04:54:44;;;;;;;90.40;26.77;;;;;;;;;;5052967;28;20048;-67
2021/12/28 04:57:10;;;;;;;81.00;25.65;;;;;;;;;;5054548;28;20224;-67
2021/12/28 04:59:37;;;;;;;104.22;28.70;;;;;;;;;;5036216;28;20045;-67
2021/12/28 05:02:03;;;;;;;67.72;23.83;;;;;;;;;;5053735;28;20045;-67
2021/12/28 05:04:29;;;;;;;76.57;24.98;;;;;;;;;;5052558;28;20130;-67
2021/12/28 05:06:56;;;;;;;69.47;24.10;;;;;;;;;;5052192;28;20044;-67
2021/12/28 05:09:22;;;;;;;69.68;24.45;;;;;;;;;;5054430;28;20040;-67
2021/12/28 05:11:48;;;;;;;75.35;24.13;;;;;;;;;;5051942;28;20041;-67
2021/12/28 05:14:17;;;;;;;68.85;23.45;;;;;;;;;;5051822;28;20049;-66
2021/12/28 05:16:43;;;;;;;79.13;26.15;;;;;;;;;;5036515;28;20076;-67
2021/12/28 05:19:09;;;;;;;81.10;25.80;;;;;;;;;;5052029;28;20037;-67
2021/12/28 05:21:35;;;;;;;69.03;24.60;;;;;;;;;;5018730;28;20099;-67
2021/12/28 05:24:02;;;;;;;64.82;22.98;;;;;;;;;;5053010;28;20406;-67
2021/12/28 05:26:28;;;;;;;65.20;21.38;;;;;;;;;;5053195;28;20499;-67
2021/12/28 05:28:54;;;;;;;71.32;24.85;;;;;;;;;;5051474;28;20037;-67
2021/12/28 05:31:20;;;;;;;61.20;23.25;;;;;;;;;;5053259;28;20045;-67
2021/12/28 05:33:46;;;;;;;59.80;21.83;;;;;;;;;;5036185;28;20067;-67
2021/12/28 05:36:12;;;;;;;65.35;22.38;;;;;;;;;;5035342;28;20417;-67
2021/12/28 05:38:38;;;;;;;64.13;22.48;;;;;;;;;;5035742;28;20045;-67
2021/12/28 05:41:05;;;;;;;70.93;22.92;;;;;;;;;;5052189;28;20080;-67
2021/12/28 05:43:31;;;;;;;57.95;22.08;;;;;;;;;;5052733;28;20056;-67
2021/12/28 05:45:57;;;;;;;71.30;23.13;;;;;;;;;;5033697;28;20095;-67
2021/12/28 05:48:23;;;;;;;67.05;22.65;;;;;;;;;;5052845;28;20095;-67
2021/12/28 05:50:49;;;;;;;57.67;22.75;;;;;;;;;;5052032;28;20044;-67
2021/12/28 05:53:15;;;;;;;61.03;21.20;;;;;;;;;;5051888;28;20081;-67
2021/12/28 05:55:41;;;;;;;61.38;22.17;;;;;;;;;;5053708;28;20064;-67
2021/12/28 05:58:07;;;;;;;64.03;20.90;;;;;;;;;;5052019;28;20041;-66
2021/12/28 06:00:33;;;;;;;64.95;22.42;;;;;;;;;;5035098;28;20064;-66
2021/12/28 06:02:59;;;;;;;79.97;24.42;;;;;;;;;;5052898;28;20079;-67
2021/12/28 06:05:26;;;;;;;119.65;27.15;;;;;;;;;;5053655;28;20046;-67
2021/12/28 06:07:52;;;;;;;67.97;22.73;;;;;;;;;;5051621;28;20049;-67
2021/12/28 06:10:18;;;;;;;55.00;21.50;;;;;;;;;;5053630;28;20060;-67
2021/12/28 06:12:45;;;;;;;45.22;19.88;;;;;;;;;;5051838;28;20049;-67
2021/12/28 06:15:11;;;;;;;49.45;20.05;;;;;;;;;;5052253;28;20159;-67
2021/12/28 06:17:37;;;;;;;50.78;20.42;;;;;;;;;;5052375;28;20041;-67
2021/12/28 06:20:04;;;;;;;55.05;21.23;;;;;;;;;;5051702;28;20041;-67
2021/12/28 06:22:30;;;;;;;55.30;19.80;;;;;;;;;;5052332;28;20127;-67
2021/12/28 06:24:56;;;;;;;42.50;19.52;;;;;;;;;;5033638;28;20143;-67
2021/12/28 06:27:22;;;;;;;51.88;20.02;;;;;;;;;;5051605;28;20037;-68
2021/12/28 06:29:48;;;;;;;81.72;22.77;;;;;;;;;;5035483;28;20059;-67
2021/12/28 06:32:14;;;;;;;58.17;20.23;;;;;;;;;;5053091;28;20049;-67
2021/12/28 06:34:40;;;;;;;47.22;18.67;;;;;;;;;;5052810;28;20095;-67
2021/12/28 06:37:06;;;;;;;42.15;17.73;;;;;;;;;;5052700;28;20048;-67
2021/12/28 06:39:32;;;;;;;42.30;17.75;;;;;;;;;;5054814;28;20056;-68
2021/12/28 06:41:58;;;;;;;40.65;17.80;;;;;;;;;;5053734;28;20049;-67
2021/12/28 06:44:24;;;;;;;42.90;17.65;;;;;;;;;;5052641;28;20395;-67
2021/12/28 06:46:50;;;;;;;42.47;16.73;;;;;;;;;;5036928;28;20053;-67
2021/12/28 06:49:17;;;;;;;42.25;16.88;;;;;;;;;;5056866;28;20056;-67
2021/12/28 06:51:43;;;;;;;49.00;17.73;;;;;;;;;;5056779;28;20041;-67
2021/12/28 06:54:09;;;;;;;38.53;16.92;;;;;;;;;;5057983;28;20044;-67
2021/12/28 06:56:35;;;;;;;55.28;18.92;;;;;;;;;;5057963;28;20067;-67
2021/12/28 06:59:01;;;;;;;66.65;19.35;;;;;;;;;;5039648;28;20048;-67
2021/12/28 07:01:27;;;;;;;76.55;20.88;;;;;;;;;;5059094;28;20071;-67
2021/12/28 07:03:53;;;;;;;79.53;20.27;;;;;;;;;;5023814;28;20049;-67
2021/12/28 07:06:21;;;;;;;92.03;21.70;;;;;;;;;;5056099;28;20104;-68
2021/12/28 07:08:47;;;;;;;106.93;24.13;;;;;;;;;;5055348;28;20072;-67
2021/12/28 07:11:13;;;;;;;52.00;16.98;;;;;;;;;;5057624;28;20785;-67
2021/12/28 07:13:39;;;;;;;70.07;20.92;;;;;;;;;;5056861;28;20073;-67
2021/12/28 07:16:05;;;;;;;56.83;17.73;;;;;;;;;;5057228;28;20514;-67
2021/12/28 07:18:31;;;;;;;77.32;20.73;;;;;;;;;;5057866;28;20041;-67
2021/12/28 07:20:58;;;;;;;52.83;16.45;;;;;;;;;;5064196;28;20037;-66
2021/12/28 07:23:24;;;;;;;53.97;15.15;;;;;;;;;;5065501;28;20095;-67
2021/12/28 07:25:53;;;;;;;47.17;14.32;;;;;;;;;;5064001;28;20037;-67
2021/12/28 07:28:19;;;;;;;70.53;19.30;;;;;;;;;;5064023;28;20053;-67
2021/12/28 07:30:45;;;;;;;73.60;18.35;;;;;;;;;;5063328;28;20045;-66
2021/12/28 07:33:11;;;;;;;77.43;20.58;;;;;;;;;;5062079;28;20423;-67
2021/12/28 07:35:37;;;;;;;88.15;20.33;;;;;;;;;;5064573;28;20048;-67
2021/12/28 07:38:03;;;;;;;94.75;20.85;;;;;;;;;;5063028;28;20045;-66
2021/12/28 07:40:29;;;;;;;86.97;21.70;;;;;;;;;;5061092;28;20045;-67
2021/12/28 07:42:56;;;;;;;37.20;13.68;;;;;;;;;;5060415;28;20045;-67
2021/12/28 07:45:22;;;;;;;171.35;32.42;;;;;;;;;;5060319;28;20045;-68
2021/12/28 07:47:48;;;;;;;103.78;22.42;;;;;;;;;;5041832;28;20088;-67
2021/12/28 07:50:16;;;;;;;186.85;34.33;;;;;;;;;;5060178;28;20101;-67
2021/12/28 07:52:43;;;;;;;92.82;21.45;;;;;;;;;;5059081;28;20439;-67
2021/12/28 07:55:09;;;;;;;77.22;20.10;;;;;;;;;;5055509;28;20132;-67
2021/12/28 07:57:35;;;;;;;44.10;13.98;;;;;;;;;;5060619;28;20049;-67
2021/12/28 08:00:04;;;;;;;48.60;15.73;;;;;;;;;;5059554;28;20060;-65
2021/12/28 08:02:30;;;;;;;92.07;19.70;;;;;;;;;;5064442;28;20049;-67
2021/12/28 08:04:56;;;;;;;68.22;17.52;;;;;;;;;;5063036;28;20053;-66
2021/12/28 08:07:22;;;;;;;39.28;12.57;;;;;;;;;;5062883;28;20079;-67
2021/12/28 08:09:48;;;;;;;468.92;85.72;;;;;;;;;;5062068;28;20352;-67
2021/12/28 08:12:14;;;;;;;66.43;17.30;;;;;;;;;;5059693;28;20071;-67
2021/12/28 08:14:40;;;;;;;65.80;17.13;;;;;;;;;;5063267;28;20041;-68
2021/12/28 08:17:06;;;;;;;59.45;15.40;;;;;;;;;;5061298;28;20049;-68
2021/12/28 08:19:32;;;;;;;87.80;20.90;;;;;;;;;;5059852;28;20094;-67
2021/12/28 08:21:58;;;;;;;62.03;14.55;;;;;;;;;;5057562;28;20055;-68
2021/12/28 08:24:24;;;;;;;54.90;13.55;;;;;;;;;;5055943;28;20127;-68
2021/12/28 08:26:50;;;;;;;86.45;17.10;;;;;;;;;;5056974;28;20036;-68
2021/12/28 08:29:16;;;;;;;29.20;10.43;;;;;;;;;;5055345;28;20101;-68
2021/12/28 08:31:42;;;;;;;47.25;14.05;;;;;;;;;;5051989;28;20062;-68
2021/12/28 08:34:08;;;;;;;34.08;11.63;;;;;;;;;;5058912;28;20040;-68
2021/12/28 08:36:34;;;;;;;44.35;12.50;;;;;;;;;;5066307;28;20048;-68
2021/12/28 08:39:00;;;;;;;54.33;13.95;;;;;;;;;;5062315;28;20052;-67
2021/12/28 08:41:26;;;;;;;74.85;16.70;;;;;;;;;;5065810;28;20040;-67
2021/12/28 08:43:52;;;;;;;61.67;14.70;;;;;;;;;;5066446;28;20033;-67
2021/12/28 08:46:18;;;;;;;81.40;17.50;;;;;;;;;;5064640;28;20043;-66
2021/12/28 08:48:45;;;;;;;84.95;17.20;;;;;;;;;;5065053;28;20037;-67
2021/12/28 08:51:11;;;;;;;38.97;11.43;;;;;;;;;;5064712;28;20446;-67
2021/12/28 08:53:37;;;;;;;49.75;11.63;;;;;;;;;;5061972;28;20036;-66
2021/12/28 08:56:03;;;;;;;38.33;12.15;;;;;;;;;;5062233;28;20455;-67
2021/12/28 08:58:29;;;;;;;52.15;12.90;;;;;;;;;;5063419;28;20049;-67
2021/12/28 09:00:55;;;;;;;82.18;17.60;;;;;;;;;;5047007;28;20045;-67
2021/12/28 09:03:21;;;;;;;61.50;15.32;;;;;;;;;;5045717;28;20392;-67
2021/12/28 09:05:47;;;;;;;126.82;23.42;;;;;;;;;;5060260;28;20055;-67
2021/12/28 09:08:16;;;;;;;79.00;16.60;;;;;;;;;;5060751;28;20450;-67
2021/12/28 09:10:43;;;;;;;49.75;13.10;;;;;;;;;;5057763;28;20072;-68
2021/12/28 09:13:09;;;;;;;27.55;10.27;;;;;;;;;;5048207;28;20072;-67
2021/12/28 09:15:38;;;;;;;30.77;10.48;;;;;;;;;;5062928;28;20040;-67
2021/12/28 09:18:04;;;;;;;;;;;;;;;;;;5066007;28;20071;-67
2021/12/28 09:20:30;;;;;;;51.10;12.52;;;;;;;;;;5063213;28;19990;-67
2021/12/28 09:22:57;;;;;;;146.73;24.88;;;;;;;;;;5062291;28;20049;-68
2021/12/28 09:25:23;;;;;;;81.25;18.63;;;;;;;;;;5045537;28;20447;-67
2021/12/28 09:27:50;;;;;;;69.60;16.90;;;;;;;;;;5042626;28;20044;-67
2021/12/28 09:30:17;;;;;;;41.45;11.35;;;;;;;;;;5062410;28;20053;-67
2021/12/28 09:32:43;;;;;;;35.80;10.63;;;;;;;;;;5064675;28;20045;-67
2021/12/28 09:35:09;;;;;;;61.50;13.63;;;;;;;;;;5061898;28;20052;-67
2021/12/28 09:37:35;;;;;;;29.83;9.05;;;;;;;;;;5058844;28;20053;-67
2021/12/28 09:40:02;;;;;;;27.50;9.40;;;;;;;;;;5058827;28;20581;-67
2021/12/28 09:42:28;;;;;;;65.30;14.13;;;;;;;;;;5059939;28;20115;-68
2021/12/28 09:44:54;;;;;;;63.38;15.13;;;;;;;;;;5058366;28;20053;-67
2021/12/28 09:47:21;;;;;;;37.55;10.10;;;;;;;;;;5059069;28;20057;-67
2021/12/28 09:49:47;;;;;;;41.70;11.10;;;;;;;;;;5038598;28;20045;-67
2021/12/28 09:52:14;;;;;;;52.15;14.05;;;;;;;;;;5051626;28;20046;-67
2021/12/28 09:54:40;;;;;;;23.58;7.78;;;;;;;;;;5046257;28;20083;-68
2021/12/28 09:57:06;;;;;;;105.20;21.92;;;;;;;;;;5054001;28;20473;-68
2021/12/28 09:59:33;;;;;;;57.78;13.30;;;;;;;;;;5059956;28;20037;-67
2021/12/28 10:02:01;;;;;;;32.78;9.65;;;;;;;;;;5060498;28;20045;-67
2021/12/28 10:04:28;;;;;;;35.78;9.98;;;;;;;;;;5064466;28;20049;-67
2021/12/28 10:07:14;;;;;;;46.33;11.23;;;;;;;;;;5062332;28;20111;-67
2021/12/28 10:09:40;;;;;;;24.52;7.88;;;;;;;;;;5064321;28;20053;-67
2021/12/28 10:12:06;;;;;;;41.28;9.13;;;;;;;;;;5062972;28;20071;-67
2021/12/28 10:14:32;;;;;;;21.60;7.60;;;;;;;;;;5063663;28;20045;-67
2021/12/28 10:17:03;;;;;;;33.45;9.20;;;;;;;;;;5060995;28;20076;-68
2021/12/28 10:19:30;;;;;;;35.58;8.70;;;;;;;;;;5059006;28;20041;-67
2021/12/28 10:21:56;;;;;;;38.80;11.55;;;;;;;;;;5060607;28;20045;-67
2021/12/28 10:24:35;;;;;;;39.40;9.73;;;;;;;;;;5062888;28;20495;-67
2021/12/28 10:27:14;;;;;;;33.38;10.15;;;;;;;;;;5065464;28;20043;-67
2021/12/28 10:29:40;;;;;;;36.20;10.15;;;;;;;;;;5065306;28;20110;-66
2021/12/28 10:32:36;;;;;;;34.17;9.35;;;;;;;;;;5066046;28;20498;-66
2021/12/28 10:35:07;;;;;;;50.08;11.77;;;;;;;;;;5030521;28;20060;-67
2021/12/28 10:37:34;;;;;;;32.92;9.25;;;;;;;;;;5043419;28;20132;-66
2021/12/28 10:40:01;;;;;;;24.77;8.27;;;;;;;;;;5059481;28;20146;-67
2021/12/28 10:42:37;;;;;;;26.67;8.20;;;;;;;;;;5064243;28;20033;-66
2021/12/28 10:45:04;;;;;;;47.38;11.68;;;;;;;;;;5063190;28;20041;-67
2021/12/28 10:47:30;;;;;;;53.15;12.15;;;;;;;;;;5065399;28;20049;-67
2021/12/28 10:49:59;;;;;;;385.48;74.88;;;;;;;;;;5047668;28;20041;-67
2021/12/28 10:52:29;;;;;;;175.57;35.60;;;;;;;;;;5075198;28;20076;-67
2021/12/28 10:55:17;;;;;;;64.13;17.67;;;;;;;;;;5072435;28;20073;-67
2021/12/28 10:57:43;;;;;;;41.67;11.02;;;;;;;;;;5071147;28;20041;-66
2021/12/28 11:00:43;;;;;;;47.05;11.85;;;;;;;;;;5071985;28;20056;-67
2021/12/28 11:03:15;;;;;;;46.28;11.45;;;;;;;;;;5014556;28;20145;-67
2021/12/28 11:05:42;;;;;;;79.22;18.25;;;;;;;;;;5074408;28;20084;-67
2021/12/28 11:08:08;;;;;;;40.85;10.90;;;;;;;;;;5067753;28;20087;-68
2021/12/28 11:10:35;;;;;;;80.80;15.82;;;;;;;;;;5039394;28;20046;-68
2021/12/28 11:13:01;;;;;;;62.92;15.63;;;;;;;;;;5066566;28;20071;-68
2021/12/28 11:15:27;;;;;;;16.77;7.35;;;;;;;;;;5067026;28;20041;-67
2021/12/28 11:17:53;;;;;;;46.45;11.05;;;;;;;;;;5066374;28;20075;-67
2021/12/28 11:20:30;;;;;;;52.25;12.35;;;;;;;;;;5065065;28;20053;-67
2021/12/28 11:23:12;;;;;;;22.95;8.93;;;;;;;;;;5045313;28;20059;-68
2021/12/28 11:25:39;;;;;;;48.40;12.90;;;;;;;;;;5061166;28;20041;-67
2021/12/28 11:28:19;;;;;;;31.60;9.13;;;;;;;;;;5059020;28;20545;-67
2021/12/28 11:31:08;;;;;;;48.40;13.13;;;;;;;;;;5055897;28;20067;-67
2021/12/28 11:33:42;;;;;;;24.48;9.48;;;;;;;;;;5056742;28;20048;-68
2021/12/28 11:36:08;;;;;;;47.38;12.90;;;;;;;;;;5060623;28;20044;-68
2021/12/28 11:38:34;;;;;;;35.00;10.98;;;;;;;;;;5056911;28;20064;-68
2021/12/28 11:41:00;;;;;;;47.28;11.98;;;;;;;;;;5060721;28;20499;-68
2021/12/28 11:43:27;;;;;;;45.85;12.52;;;;;;;;;;5057302;28;20517;-67
2021/12/28 11:45:53;;;;;;;30.52;11.27;;;;;;;;;;5056144;28;20124;-68
2021/12/28 11:48:19;;;;;;;25.50;9.73;;;;;;;;;;5053737;28;20133;-68
2021/12/28 11:50:45;;;;;;;27.55;10.38;;;;;;;;;;5054345;28;20041;-67
2021/12/28 11:53:14;;;;;;;37.05;12.68;;;;;;;;;;5054676;28;20041;-67
2021/12/28 11:55:41;;;;;;;33.10;11.48;;;;;;;;;;5034840;28;20045;-68
2021/12/28 11:58:08;;;;;;;60.03;15.68;;;;;;;;;;5054578;28;20785;-68
2021/12/28 12:00:38;;;;;;;46.47;13.23;;;;;;;;;;5053336;28;20092;-67
2021/12/28 12:03:04;;;;;;;39.67;13.13;;;;;;;;;;5055835;28;20056;-69
2021/12/28 12:05:30;;;;;;;39.70;13.63;;;;;;;;;;5055457;28;20525;-68
2021/12/28 12:08:16;;;;;;;36.63;13.73;;;;;;;;;;5033473;28;20406;-67
2021/12/28 12:10:44;;;;;;;32.30;12.60;;;;;;;;;;5055221;28;20041;-68
2021/12/28 12:13:21;;;;;;;32.15;13.50;;;;;;;;;;5048465;28;20041;-68
2021/12/28 12:15:49;;;;;;;48.20;16.10;;;;;;;;;;5048424;28;20044;-67
2021/12/28 12:18:17;;;;;;;35.08;14.07;;;;;;;;;;5062590;28;20041;-68
2021/12/28 12:20:47;;;;;;;39.35;14.57;;;;;;;;;;5051829;28;20047;-67
2021/12/28 12:23:15;;;;;;;47.67;15.25;;;;;;;;;;5054901;28;20036;-68
2021/12/28 12:25:48;;;;;;;42.80;15.68;;;;;;;;;;5056221;28;20131;-69
2021/12/28 12:28:15;;;;;;;31.20;14.55;;;;;;;;;;5054146;28;20049;-68
2021/12/28 12:30:50;;;;;;;36.42;14.65;;;;;;;;;;5055261;28;20061;-68
2021/12/28 12:33:17;;;;;;;46.33;16.27;;;;;;;;;;5054802;28;20403;-67
2021/12/28 12:35:43;;;;;;;40.00;14.48;;;;;;;;;;5052508;28;20128;-67
2021/12/28 12:38:12;;;;;;;56.92;17.42;;;;;;;;;;5054683;28;20052;-69
2021/12/28 12:40:59;;;;;;;42.22;16.98;;;;;;;;;;5053882;28;20090;-68
2021/12/28 12:43:26;;;;;;;37.75;15.32;;;;;;;;;;5055199;28;20053;-67
2021/12/28 12:45:52;;;;;;;29.42;13.95;;;;;;;;;;5053163;28;20053;-69
2021/12/28 12:48:32;;;;;;;47.92;17.73;;;;;;;;;;5053669;28;20047;-69
2021/12/28 12:51:17;;;;;;;60.28;18.02;;;;;;;;;;5036743;28;20499;-68
2021/12/28 12:53:48;;;;;;;37.22;15.98;;;;;;;;;;5055506;28;20399;-68
2021/12/28 12:56:15;;;;;;;34.80;15.20;;;;;;;;;;5057243;28;20033;-68
2021/12/28 12:58:44;;;;;;;44.65;17.50;;;;;;;;;;5053914;28;20132;-68
2021/12/28 13:01:25;;;;;;;33.38;14.60;;;;;;;;;;5054218;28;20068;-68
2021/12/28 13:03:52;;;;;;;37.22;15.40;;;;;;;;;;5035975;28;20092;-68
2021/12/28 13:06:37;;;;;;;37.65;15.98;;;;;;;;;;5037203;28;20071;-68
2021/12/28 13:09:05;;;;;;;31.25;14.55;;;;;;;;;;5056343;28;20064;-68
2021/12/28 13:11:32;;;;;;;34.55;15.85;;;;;;;;;;5052259;28;20053;-68
2021/12/28 13:13:58;;;;;;;41.63;15.85;;;;;;;;;;5052566;28;20052;-68
2021/12/28 13:16:24;;;;;;;42.05;16.27;;;;;;;;;;5053558;28;20041;-68
2021/12/28 13:18:50;;;;;;;72.45;21.10;;;;;;;;;;5053780;28;20037;-68
2021/12/28 13:21:20;;;;;;;29.58;15.60;;;;;;;;;;5056631;28;20053;-68
2021/12/28 13:24:05;;;;;;;43.40;18.27;;;;;;;;;;5057179;28;20077;-68
2021/12/28 13:26:43;;;;;;;136.52;30.73;;;;;;;;;;5052011;28;20124;-67
2021/12/28 13:29:09;;;;;;;63.63;21.48;;;;;;;;;;5034836;28;20037;-68
2021/12/28 13:31:35;;;;;;;147.77;35.17;;;;;;;;;;5053433;28;20123;-68
2021/12/28 13:34:03;;;;;;;38.15;18.35;;;;;;;;;;5053836;28;20049;-69
2021/12/28 13:36:29;;;;;;;42.75;18.63;;;;;;;;;;5051225;28;20045;-69
2021/12/28 13:39:08;;;;;;;47.45;20.00;;;;;;;;;;5051679;28;20051;-69
2021/12/28 13:41:34;;;;;;;39.13;18.92;;;;;;;;;;5053723;28;20441;-69
2021/12/28 13:44:04;;;;;;;34.47;18.75;;;;;;;;;;5055641;28;20047;-69
2021/12/28 13:46:31;;;;;;;32.30;17.88;;;;;;;;;;5053823;28;20049;-69
2021/12/28 13:48:59;;;;;;;33.35;17.73;;;;;;;;;;5051636;28;20055;-69
2021/12/28 13:51:26;;;;;;;25.48;16.85;;;;;;;;;;5032165;28;20092;-68
2021/12/28 13:53:58;;;;;;;32.40;17.98;;;;;;;;;;5046656;28;20053;-67
2021/12/28 13:56:30;;;;;;;30.70;17.45;;;;;;;;;;5052982;28;20499;-66
2021/12/28 13:58:56;;;;;;;33.50;18.35;;;;;;;;;;5053182;28;20059;-68
2021/12/28 14:01:24;;;;;;;35.35;19.55;;;;;;;;;;5055934;28;20170;-68
2021/12/28 14:04:04;;;;;;;38.38;18.58;;;;;;;;;;5057971;28;20041;-68
2021/12/28 14:06:31;;;;;;;32.90;18.77;;;;;;;;;;5052844;28;20053;-68
2021/12/28 14:08:57;;;;;;;35.15;19.42;;;;;;;;;;5053171;28;20041;-68
2021/12/28 14:11:31;;;;;;;33.25;18.30;;;;;;;;;;5056039;28;20183;-68
2021/12/28 14:13:57;;;;;;;38.80;20.83;;;;;;;;;;5056714;28;20045;-68
2021/12/28 14:16:23;;;;;;;37.50;20.23;;;;;;;;;;5052587;28;20047;-67
2021/12/28 14:18:50;;;;;;;37.28;20.75;;;;;;;;;;5052662;28;20049;-68
2021/12/28 14:21:25;;;;;;;69.82;36.92;;;;;;;;;;5052982;28;20087;-67